createdAt,value
2023-05-15T00:01:15.702Z,99711.91
2023-05-15T00:02:47.973Z,99720.63
2023-05-15T00:04:20.118Z,99718.09
2023-05-15T00:05:52.916Z,99719.81
2023-05-15T00:07:25.027Z,99727.72
2023-05-15T00:08:57.354Z,99727.75
2023-05-15T00:10:29.437Z,99732.13
2023-05-15T00:12:01.631Z,99723.53
2023-05-15T00:13:33.638Z,99717.34
2023-05-15T00:15:06.330Z,99723.41
2023-05-15T00:16:38.428Z,99729.44
2023-05-15T00:18:10.707Z,99725.94
2023-05-15T00:19:43.013Z,99730.38
2023-05-15T00:21:15.149Z,99724.38
2023-05-15T00:22:47.266Z,99727.06
2023-05-15T00:24:19.477Z,99727.31
2023-05-15T00:25:51.780Z,99728.31
2023-05-15T00:27:23.797Z,99723.16
2023-05-15T00:28:56.046Z,99717.09
2023-05-15T00:30:28.600Z,99710.97
2023-05-15T00:32:00.799Z,99708.38
2023-05-15T00:33:33.041Z,99710.97
2023-05-15T00:35:06.901Z,99709.28
2023-05-15T00:36:39.048Z,99713.00
2023-05-15T00:38:11.451Z,99719.00
2023-05-15T00:39:43.662Z,99726.03
2023-05-15T00:41:16.266Z,99721.75
2023-05-15T00:42:48.827Z,99733.09
2023-05-15T00:44:22.272Z,99726.19
2023-05-15T00:45:54.408Z,99738.97
2023-05-15T00:47:27.308Z,99736.56
2023-05-15T00:48:59.509Z,99734.19
2023-05-15T00:50:33.372Z,99735.84
2023-05-15T00:52:08.845Z,99728.38
2023-05-15T00:53:41.370Z,99728.25
2023-05-15T00:55:13.545Z,99722.16
2023-05-15T00:56:45.726Z,99710.03
2023-05-15T00:59:50.498Z,99694.41
2023-05-15T01:01:22.732Z,99699.63
2023-05-15T01:02:55.104Z,99702.22
2023-05-15T01:04:27.281Z,99709.97
2023-05-15T01:05:59.511Z,99722.88
2023-05-15T01:07:35.593Z,99722.78
2023-05-15T01:09:08.703Z,99721.06
2023-05-15T01:10:42.468Z,99715.78
2023-05-15T01:12:17.224Z,99701.84
2023-05-15T01:13:49.355Z,99697.59
2023-05-15T01:15:21.722Z,99694.16
2023-05-15T01:16:53.841Z,99693.34
2023-05-15T01:18:32.481Z,99697.81
2023-05-15T01:20:07.810Z,99696.22
2023-05-15T01:22:16.216Z,99706.63
2023-05-15T01:24:25.615Z,99722.38
2023-05-15T01:26:06.224Z,99710.53
2023-05-15T01:27:46.078Z,99713.06
2023-05-15T01:29:28.231Z,99708.78
2023-05-15T01:31:04.837Z,99707.97
2023-05-15T01:32:58.536Z,99701.19
2023-05-15T01:34:37.379Z,99704.81
2023-05-15T01:36:17.273Z,99694.59
2023-05-15T01:38:04.472Z,99705.94
2023-05-15T01:39:39.713Z,99695.66
2023-05-15T01:41:25.557Z,99693.91
2023-05-15T01:43:06.590Z,99700.88
2023-05-15T01:44:45.250Z,99697.47
2023-05-15T01:46:20.715Z,99685.44
2023-05-15T01:47:54.131Z,99681.19
2023-05-15T01:49:29.211Z,99682.06
2023-05-15T01:51:04.019Z,99694.38
2023-05-15T01:52:39.420Z,99696.19
2023-05-15T01:54:12.532Z,99695.50
2023-05-15T01:55:45.697Z,99692.09
2023-05-15T01:58:51.284Z,99695.75
2023-05-15T02:00:24.690Z,99696.75
2023-05-15T02:01:57.676Z,99699.16
2023-05-15T02:03:34.349Z,99700.13
2023-05-15T02:05:07.225Z,99707.22
2023-05-15T02:06:40.096Z,99709.13
2023-05-15T02:08:13.267Z,99706.03
2023-05-15T02:09:45.905Z,99696.66
2023-05-15T02:11:18.027Z,99687.22
2023-05-15T02:12:50.821Z,99683.69
2023-05-15T02:14:23.209Z,99675.13
2023-05-15T02:15:55.355Z,99675.03
2023-05-15T02:17:28.434Z,99674.91
2023-05-15T02:19:00.447Z,99667.91
2023-05-15T02:20:32.630Z,99663.50
2023-05-15T02:22:04.865Z,99660.00
2023-05-15T02:23:36.913Z,99663.44
2023-05-15T02:25:09.284Z,99672.91
2023-05-15T02:27:05.953Z,99667.53
2023-05-15T02:28:54.280Z,99660.53
2023-05-15T02:30:46.964Z,99641.44
2023-05-15T02:32:44.961Z,99639.72
2023-05-15T02:34:36.778Z,99658.84
2023-05-15T02:36:10.414Z,99661.47
2023-05-15T02:37:43.044Z,99659.13
2023-05-15T02:39:16.576Z,99654.13
2023-05-15T02:40:48.840Z,99665.50
2023-05-15T02:42:21.757Z,99656.13
2023-05-15T02:43:55.852Z,99648.47
2023-05-15T02:45:28.920Z,99657.25
2023-05-15T02:47:02.824Z,99655.59
2023-05-15T02:48:36.295Z,99645.16
2023-05-15T02:50:08.795Z,99644.41
2023-05-15T02:51:41.243Z,99651.41
2023-05-15T02:53:14.887Z,99657.50
2023-05-15T02:54:46.983Z,99662.69
2023-05-15T02:56:19.152Z,99661.78
2023-05-15T02:57:51.308Z,99664.38
2023-05-15T02:59:23.592Z,99655.63
2023-05-15T03:00:55.761Z,99653.13
2023-05-15T03:04:04.716Z,99659.41
2023-05-15T03:05:36.849Z,99670.72
2023-05-15T03:07:09.016Z,99667.28
2023-05-15T03:08:41.288Z,99671.50
2023-05-15T03:10:13.411Z,99683.56
2023-05-15T03:11:45.604Z,99691.38
2023-05-15T03:13:17.702Z,99694.94
2023-05-15T03:14:49.946Z,99698.47
2023-05-15T03:16:22.246Z,99694.19
2023-05-15T03:17:54.354Z,99689.84
2023-05-15T03:19:26.569Z,99690.78
2023-05-15T03:20:58.733Z,99701.13
2023-05-15T03:22:30.971Z,99695.09
2023-05-15T03:24:03.070Z,99693.34
2023-05-15T03:25:35.221Z,99688.19
2023-05-15T03:27:07.334Z,99690.88
2023-05-15T03:28:41.676Z,99694.41
2023-05-15T03:30:14.439Z,99701.38
2023-05-15T03:31:47.048Z,99695.41
2023-05-15T03:33:19.302Z,99693.63
2023-05-15T03:34:51.428Z,99687.63
2023-05-15T03:36:23.576Z,99685.78
2023-05-15T03:37:55.707Z,99678.81
2023-05-15T03:39:27.784Z,99682.13
2023-05-15T03:40:59.867Z,99689.84
2023-05-15T03:42:31.956Z,99697.69
2023-05-15T03:44:04.147Z,99696.72
2023-05-15T03:45:36.840Z,99700.00
2023-05-15T03:47:08.922Z,99700.06
2023-05-15T03:48:41.026Z,99704.31
2023-05-15T03:50:13.611Z,99703.38
2023-05-15T03:51:45.888Z,99708.53
2023-05-15T03:53:18.000Z,99712.78
2023-05-15T03:54:50.966Z,99709.22
2023-05-15T03:56:23.123Z,99702.38
2023-05-15T03:57:55.326Z,99701.53
2023-05-15T03:59:27.409Z,99706.69
2023-05-15T04:00:59.556Z,99695.53
2023-05-15T04:02:31.823Z,99688.63
2023-05-15T04:04:04.357Z,99680.78
2023-05-15T04:05:36.675Z,99679.84
2023-05-15T04:07:08.947Z,99673.72
2023-05-15T04:08:41.551Z,99677.13
2023-05-15T04:10:14.054Z,99677.97
2023-05-15T04:11:47.137Z,99672.75
2023-05-15T04:13:19.307Z,99671.00
2023-05-15T04:14:51.363Z,99675.31
2023-05-15T04:16:23.714Z,99678.81
2023-05-15T04:17:55.942Z,99689.94
2023-05-15T04:19:28.107Z,99696.78
2023-05-15T04:21:00.172Z,99702.81
2023-05-15T04:22:32.337Z,99702.69
2023-05-15T04:24:04.693Z,99702.63
2023-05-15T04:25:36.971Z,99702.50
2023-05-15T04:27:09.533Z,99695.63
2023-05-15T04:28:52.298Z,99700.63
2023-05-15T04:30:28.500Z,99704.03
2023-05-15T04:32:00.782Z,99711.69
2023-05-15T04:33:32.949Z,99710.69
2023-05-15T04:35:13.757Z,99712.25
2023-05-15T04:36:48.789Z,99700.91
2023-05-15T04:38:21.038Z,99719.06
2023-05-15T04:39:53.127Z,99700.94
2023-05-15T04:41:25.223Z,99698.94
2023-05-15T04:42:57.574Z,99698.00
2023-05-15T04:44:29.706Z,99697.88
2023-05-15T04:46:01.817Z,99693.38
2023-05-15T04:47:34.193Z,99680.28
2023-05-15T04:49:07.127Z,99678.38
2023-05-15T04:50:39.251Z,99679.03
2023-05-15T04:52:11.530Z,99682.31
2023-05-15T04:53:43.655Z,99683.00
2023-05-15T04:55:15.858Z,99681.09
2023-05-15T04:56:47.950Z,99672.31
2023-05-15T04:58:20.139Z,99679.88
2023-05-15T04:59:52.388Z,99674.50
2023-05-15T05:01:24.655Z,99668.28
2023-05-15T05:02:56.950Z,99662.84
2023-05-15T05:04:29.174Z,99657.34
2023-05-15T05:06:01.468Z,99655.50
2023-05-15T05:07:34.429Z,99655.22
2023-05-15T05:09:06.493Z,99659.22
2023-05-15T05:10:38.758Z,99659.91
2023-05-15T05:12:11.230Z,99661.38
2023-05-15T05:13:43.468Z,99658.56
2023-05-15T05:15:18.308Z,99660.00
2023-05-15T05:16:50.623Z,99658.78
2023-05-15T05:18:22.745Z,99651.66
2023-05-15T05:19:54.990Z,99648.81
2023-05-15T05:21:27.323Z,99654.63
2023-05-15T05:22:59.432Z,99652.72
2023-05-15T05:24:32.503Z,99655.97
2023-05-15T05:26:06.058Z,99655.78
2023-05-15T05:27:38.377Z,99655.59
2023-05-15T05:29:11.274Z,99653.56
2023-05-15T05:30:46.651Z,99654.09
2023-05-15T05:32:18.785Z,99662.78
2023-05-15T05:33:51.813Z,99654.63
2023-05-15T05:35:24.096Z,99651.97
2023-05-15T05:36:56.750Z,99657.13
2023-05-15T05:38:28.861Z,99645.78
2023-05-15T05:40:01.096Z,99649.84
2023-05-15T05:41:33.378Z,99642.78
2023-05-15T05:43:05.842Z,99654.59
2023-05-15T05:44:37.945Z,99656.13
2023-05-15T05:46:13.294Z,99649.13
2023-05-15T05:47:46.105Z,99646.16
2023-05-15T05:49:18.253Z,99638.28
2023-05-15T05:50:50.580Z,99635.47
2023-05-15T05:52:22.601Z,99631.81
2023-05-15T05:53:54.924Z,99638.47
2023-05-15T05:55:27.445Z,99638.28
2023-05-15T05:56:59.743Z,99639.03
2023-05-15T05:58:31.937Z,99647.59
2023-05-15T06:00:09.229Z,99653.41
2023-05-15T06:01:41.380Z,99645.41
2023-05-15T06:03:13.786Z,99647.13
2023-05-15T06:04:46.748Z,99645.88
2023-05-15T06:06:19.095Z,99648.25
2023-05-15T06:07:51.277Z,99647.22
2023-05-15T06:09:23.340Z,99652.28
2023-05-15T06:10:55.459Z,99657.34
2023-05-15T06:12:28.593Z,99663.16
2023-05-15T06:14:01.137Z,99653.47
2023-05-15T06:15:33.219Z,99649.81
2023-05-15T06:17:05.657Z,99646.19
2023-05-15T06:18:37.871Z,99639.84
2023-05-15T06:20:10.405Z,99643.94
2023-05-15T06:21:42.558Z,99636.78
2023-05-15T06:23:14.682Z,99647.13
2023-05-15T06:24:46.765Z,99635.66
2023-05-15T06:26:18.909Z,99641.53
2023-05-15T06:27:51.032Z,99646.47
2023-05-15T06:29:23.197Z,99649.00
2023-05-15T06:30:55.425Z,99648.72
2023-05-15T06:32:27.693Z,99651.25
2023-05-15T06:35:31.878Z,99656.91
2023-05-15T06:37:04.097Z,99655.75
2023-05-15T06:38:36.481Z,99660.97
2023-05-15T06:40:09.274Z,99654.84
2023-05-15T06:41:41.447Z,99648.66
2023-05-15T06:43:13.672Z,99645.75
2023-05-15T06:44:47.883Z,99641.28
2023-05-15T06:46:20.157Z,99631.59
2023-05-15T06:47:52.297Z,99633.25
2023-05-15T06:49:25.311Z,99633.84
2023-05-15T06:50:57.426Z,99633.78
2023-05-15T06:52:29.720Z,99624.16
2023-05-15T06:54:01.921Z,99621.38
2023-05-15T06:55:35.097Z,99621.22
2023-05-15T06:57:07.320Z,99613.38
2023-05-15T06:58:39.488Z,99613.03
2023-05-15T07:00:12.615Z,99608.47
2023-05-15T07:01:44.904Z,99614.41
2023-05-15T07:03:17.194Z,99618.50
2023-05-15T07:04:49.321Z,99626.09
2023-05-15T07:06:21.587Z,99625.97
2023-05-15T07:07:53.769Z,99633.28
2023-05-15T07:09:25.965Z,99631.19
2023-05-15T07:10:58.128Z,99634.31
2023-05-15T07:12:30.250Z,99636.38
2023-05-15T07:14:02.835Z,99637.00
2023-05-15T07:15:34.943Z,99639.28
2023-05-15T07:17:07.162Z,99634.66
2023-05-15T07:18:39.597Z,99646.66
2023-05-15T07:20:12.126Z,99638.66
2023-05-15T07:21:45.531Z,99639.22
2023-05-15T07:23:17.464Z,99645.69
2023-05-15T07:24:49.596Z,99643.22
2023-05-15T07:26:32.860Z,99645.00
2023-05-15T07:28:08.691Z,99631.81
2023-05-15T07:29:40.808Z,99628.09
2023-05-15T07:31:12.977Z,99625.31
2023-05-15T07:32:45.315Z,99624.34
2023-05-15T07:34:17.566Z,99615.44
2023-05-15T07:35:51.322Z,99620.28
2023-05-15T07:37:26.163Z,99607.94
2023-05-15T07:38:58.985Z,99607.56
2023-05-15T07:40:31.877Z,99609.75
2023-05-15T07:42:04.141Z,99608.66
2023-05-15T07:43:36.875Z,99605.88
2023-05-15T07:45:09.784Z,99607.22
2023-05-15T07:46:42.239Z,99601.69
2023-05-15T07:48:18.278Z,99601.34
2023-05-15T07:49:50.417Z,99603.41
2023-05-15T07:51:22.732Z,99612.03
2023-05-15T07:52:54.823Z,99605.09
2023-05-15T07:54:27.351Z,99603.22
2023-05-15T07:55:59.969Z,99605.75
2023-05-15T07:57:32.424Z,99607.63
2023-05-15T07:59:04.566Z,99614.59
2023-05-15T08:00:37.292Z,99609.34
2023-05-15T08:03:42.254Z,99616.94
2023-05-15T08:05:14.596Z,99616.19
2023-05-15T08:06:46.771Z,99617.78
2023-05-15T08:08:18.851Z,99627.16
2023-05-15T08:09:52.259Z,99622.75
2023-05-15T08:11:24.367Z,99627.25
2023-05-15T08:12:56.620Z,99624.97
2023-05-15T08:14:28.890Z,99633.53
2023-05-15T08:16:01.156Z,99633.44
2023-05-15T08:17:33.402Z,99633.34
2023-05-15T08:19:07.553Z,99634.09
2023-05-15T08:20:39.641Z,99640.22
2023-05-15T08:22:12.241Z,99651.19
2023-05-15T08:23:44.370Z,99645.88
2023-05-15T08:25:16.596Z,99649.25
2023-05-15T08:26:48.697Z,99653.63
2023-05-15T08:28:20.751Z,99649.75
2023-05-15T08:29:53.232Z,99647.88
2023-05-15T08:31:25.547Z,99644.31
2023-05-15T08:32:57.794Z,99634.66
2023-05-15T08:34:30.373Z,99629.03
2023-05-15T08:36:02.485Z,99629.91
2023-05-15T08:37:34.658Z,99629.78
2023-05-15T08:39:07.757Z,99628.03
2023-05-15T08:40:41.414Z,99633.81
2023-05-15T08:42:22.605Z,99629.22
2023-05-15T08:43:56.004Z,99632.78
2023-05-15T08:45:28.444Z,99623.22
2023-05-15T08:47:04.221Z,99624.81
2023-05-15T08:48:38.695Z,99638.78
2023-05-15T08:50:15.845Z,99636.16
2023-05-15T08:51:48.795Z,99624.13
2023-05-15T08:53:21.313Z,99629.22
2023-05-15T08:54:54.130Z,99631.84
2023-05-15T08:56:26.549Z,99637.09
2023-05-15T08:57:59.402Z,99644.13
2023-05-15T08:59:31.954Z,99648.59
2023-05-15T09:01:04.166Z,99648.72
2023-05-15T09:02:37.937Z,99650.41
2023-05-15T09:04:10.532Z,99648.03
2023-05-15T09:05:43.012Z,99657.72
2023-05-15T09:07:16.186Z,99656.84
2023-05-15T09:08:48.938Z,99659.53
2023-05-15T09:10:21.681Z,99661.25
2023-05-15T09:11:54.258Z,99659.53
2023-05-15T09:13:26.496Z,99663.94
2023-05-15T09:15:18.256Z,99664.63
2023-05-15T09:16:53.719Z,99666.66
2023-05-15T09:18:25.958Z,99664.13
2023-05-15T09:19:58.102Z,99666.19
2023-05-15T09:21:34.087Z,99663.34
2023-05-15T09:23:26.219Z,99658.03
2023-05-15T09:24:58.626Z,99659.13
2023-05-15T09:26:30.995Z,99654.81
2023-05-15T09:28:03.133Z,99657.44
2023-05-15T09:29:37.479Z,99648.72
2023-05-15T09:31:09.842Z,99644.41
2023-05-15T09:32:42.201Z,99643.66
2023-05-15T09:34:14.486Z,99635.09
2023-05-15T09:35:46.692Z,99632.75
2023-05-15T09:37:30.418Z,99630.88
2023-05-15T09:39:03.367Z,99629.00
2023-05-15T09:40:35.544Z,99627.59
2023-05-15T09:42:09.000Z,99624.19
2023-05-15T09:43:41.909Z,99619.09
2023-05-15T09:45:19.921Z,99618.19
2023-05-15T09:46:52.902Z,99611.44
2023-05-15T09:48:25.236Z,99620.06
2023-05-15T09:49:57.479Z,99619.78
2023-05-15T09:51:29.607Z,99617.84
2023-05-15T09:53:01.858Z,99622.06
2023-05-15T11:32:48.741Z,99601.03
2023-05-15T11:34:38.548Z,99607.13
2023-05-15T11:36:10.949Z,99606.22
2023-05-15T11:37:44.643Z,99608.63
2023-05-15T11:39:16.821Z,99611.84
2023-05-15T11:40:49.159Z,99615.03
2023-05-15T11:42:21.279Z,99606.75
2023-05-15T11:43:53.449Z,99613.53
2023-05-15T11:45:25.607Z,99610.72
2023-05-15T11:46:58.453Z,99612.09
2023-05-15T11:48:42.373Z,99615.13
2023-05-15T11:50:14.892Z,99614.19
2023-05-15T11:51:49.120Z,99608.81
2023-05-15T11:53:21.965Z,99607.91
2023-05-15T11:54:54.642Z,99606.84
2023-05-15T11:56:31.163Z,99610.16
2023-05-15T11:58:04.656Z,99601.41
2023-05-15T11:59:36.760Z,99611.19
2023-05-15T12:01:11.188Z,99615.31
2023-05-15T12:02:43.479Z,99605.81
2023-05-15T12:04:17.685Z,99613.53
2023-05-15T12:05:58.959Z,99608.34
2023-05-15T12:07:32.037Z,99611.56
2023-05-15T12:09:05.311Z,99608.41
2023-05-15T12:10:40.577Z,99606.22
2023-05-15T12:12:15.418Z,99603.72
2023-05-15T12:13:52.936Z,99602.75
2023-05-15T12:15:25.201Z,99604.56
2023-05-15T12:17:03.249Z,99599.00
2023-05-15T12:18:35.454Z,99601.72
2023-05-15T12:20:12.865Z,99596.06
2023-05-15T12:21:47.683Z,99589.97
2023-05-15T12:23:22.022Z,99581.31
2023-05-15T12:24:54.180Z,99571.63
2023-05-15T12:26:27.077Z,99570.50
2023-05-15T12:28:02.385Z,99560.63
2023-05-15T12:29:34.500Z,99549.25
2023-05-15T12:31:06.697Z,99556.19
2023-05-15T12:32:39.479Z,99546.13
2023-05-15T12:34:11.785Z,99540.97
2023-05-15T12:35:52.378Z,99544.03
2023-05-15T12:37:24.658Z,99541.72
2023-05-15T12:38:57.570Z,99543.50
2023-05-15T12:40:29.717Z,99547.06
2023-05-15T12:42:01.852Z,99546.13
2023-05-15T12:43:34.375Z,99549.78
2023-05-15T12:45:16.145Z,99544.13
2023-05-15T12:46:48.356Z,99550.13
2023-05-15T12:48:20.785Z,99540.56
2023-05-15T12:49:57.434Z,99552.25
2023-05-15T12:51:30.274Z,99556.56
2023-05-15T12:53:04.066Z,99556.16
2023-05-15T12:54:41.450Z,99563.03
2023-05-15T12:56:16.896Z,99564.63
2023-05-15T12:57:49.345Z,99566.50
2023-05-15T12:59:21.492Z,99572.59
2023-05-15T13:00:53.824Z,99570.94
2023-05-15T13:02:26.573Z,99554.28
2023-05-15T13:03:59.397Z,99553.44
2023-05-15T13:05:36.001Z,99550.72
2023-05-15T13:07:08.079Z,99562.38
2023-05-15T13:08:42.042Z,99562.91
2023-05-15T13:10:14.315Z,99566.69
2023-05-15T13:11:46.502Z,99559.00
2023-05-15T13:13:18.757Z,99557.13
2023-05-15T13:14:51.290Z,99556.28
2023-05-15T13:16:30.048Z,99547.84
2023-05-15T13:18:06.514Z,99545.13
2023-05-15T13:19:38.739Z,99544.19
2023-05-15T13:21:10.882Z,99542.50
2023-05-15T13:22:43.006Z,99546.09
2023-05-15T13:24:15.507Z,99535.56
2023-05-15T13:25:48.037Z,99536.41
2023-05-15T13:27:20.603Z,99527.75
2023-05-15T13:28:52.826Z,99524.38
2023-05-15T13:30:25.520Z,99518.28
2023-05-15T13:31:58.002Z,99510.34
2023-05-15T13:33:30.329Z,99505.06
2023-05-15T13:35:03.601Z,99488.97
2023-05-15T13:36:35.578Z,99482.75
2023-05-15T13:38:10.394Z,99474.84
2023-05-15T13:39:43.462Z,99478.72
2023-05-15T13:41:15.561Z,99488.72
2023-05-15T13:42:47.724Z,99484.38
2023-05-15T13:44:19.798Z,99494.81
2023-05-15T13:45:52.043Z,99497.53
2023-05-15T13:47:24.201Z,99489.94
2023-05-15T13:48:56.311Z,99487.97
2023-05-15T13:50:28.540Z,99482.81
2023-05-15T13:52:00.845Z,99487.09
2023-05-15T13:53:32.865Z,99481.84
2023-05-15T13:55:05.701Z,99488.72
2023-05-15T13:56:37.747Z,99493.97
2023-05-15T13:58:09.827Z,99497.34
2023-05-15T13:59:41.954Z,99498.19
2023-05-15T14:01:14.185Z,99499.13
2023-05-15T14:02:46.454Z,99497.13
2023-05-15T14:04:19.125Z,99492.63
2023-05-15T14:05:51.700Z,99495.47
2023-05-15T14:07:24.539Z,99495.16
2023-05-15T14:08:56.623Z,99502.22
2023-05-15T14:10:28.917Z,99503.97
2023-05-15T14:12:01.083Z,99509.06
2023-05-15T14:13:34.580Z,99506.19
2023-05-15T14:15:07.249Z,99511.47
2023-05-15T14:16:39.433Z,99506.94
2023-05-15T14:18:11.610Z,99513.81
2023-05-15T14:19:43.876Z,99499.91
2023-05-15T14:21:16.183Z,99495.41
2023-05-15T14:22:48.333Z,99492.53
2023-05-15T14:24:20.481Z,99495.91
2023-05-15T14:25:54.740Z,99495.91
2023-05-15T14:27:26.788Z,99504.56
2023-05-15T14:28:59.237Z,99500.03
2023-05-15T14:30:31.513Z,99503.41
2023-05-15T14:32:03.785Z,99491.09
2023-05-15T14:33:35.927Z,99495.50
2023-05-15T14:35:08.352Z,99493.72
2023-05-15T14:36:40.583Z,99481.50
2023-05-15T14:38:12.696Z,99483.28
2023-05-15T14:39:44.959Z,99486.66
2023-05-15T14:41:17.115Z,99484.97
2023-05-15T14:42:49.321Z,99487.53
2023-05-15T14:44:21.444Z,99494.56
2023-05-15T14:45:53.686Z,99501.00
2023-05-15T14:47:28.444Z,99493.81
2023-05-15T14:49:00.732Z,99491.31
2023-05-15T14:50:33.118Z,99492.13
2023-05-15T14:52:07.262Z,99489.50
2023-05-15T14:53:39.451Z,99488.53
2023-05-15T14:55:11.655Z,99495.50
2023-05-15T14:56:43.686Z,99485.81
2023-05-15T14:58:15.859Z,99487.53
2023-05-15T14:59:48.025Z,99493.41
2023-05-15T15:01:20.794Z,99496.25
2023-05-15T15:02:53.205Z,99486.25
2023-05-15T15:04:27.032Z,99501.84
2023-05-15T15:05:59.158Z,99504.25
2023-05-15T15:07:31.431Z,99490.06
2023-05-15T15:09:03.818Z,99497.75
2023-05-15T15:10:41.110Z,99494.09
2023-05-15T15:12:13.249Z,99486.38
2023-05-15T15:13:45.567Z,99486.38
2023-05-15T15:15:18.075Z,99489.84
2023-05-15T15:16:50.333Z,99486.28
2023-05-15T15:18:22.899Z,99488.19
2023-05-15T15:19:55.693Z,99487.13
2023-05-15T15:21:27.811Z,99489.00
2023-05-15T15:23:00.616Z,99493.31
2023-05-15T15:24:32.737Z,99492.56
2023-05-15T15:26:04.890Z,99494.38
2023-05-15T15:27:39.758Z,99492.56
2023-05-15T15:29:11.941Z,99482.03
2023-05-15T15:30:44.425Z,99482.91
2023-05-15T15:32:16.680Z,99481.13
2023-05-15T15:33:49.099Z,99482.91
2023-05-15T15:35:21.200Z,99482.78
2023-05-15T15:36:53.268Z,99484.47
2023-05-15T15:38:25.420Z,99485.25
2023-05-15T15:39:58.489Z,99475.66
2023-05-15T15:41:31.470Z,99480.00
2023-05-15T15:43:03.639Z,99474.72
2023-05-15T15:44:35.928Z,99480.81
2023-05-15T15:46:08.278Z,99491.34
2023-05-15T15:47:40.581Z,99477.41
2023-05-15T15:49:12.759Z,99478.28
2023-05-15T15:50:44.937Z,99469.63
2023-05-15T15:52:17.676Z,99463.63
2023-05-15T15:53:49.757Z,99464.56
2023-05-15T15:55:21.944Z,99469.94
2023-05-15T15:56:54.115Z,99477.84
2023-05-15T15:58:26.290Z,99470.69
2023-05-15T15:59:58.687Z,99462.13
2023-05-15T16:01:30.904Z,99454.25
2023-05-15T16:03:03.165Z,99449.94
2023-05-15T16:04:36.315Z,99451.00
2023-05-15T16:06:08.424Z,99447.50
2023-05-15T16:07:40.522Z,99435.81
2023-05-15T16:09:12.895Z,99443.50
2023-05-15T16:10:45.190Z,99435.72
2023-05-15T16:12:17.278Z,99439.19
2023-05-15T16:13:49.376Z,99429.63
2023-05-15T16:15:23.686Z,99428.97
2023-05-15T16:16:56.489Z,99430.53
2023-05-15T16:18:28.818Z,99427.91
2023-05-15T16:20:01.079Z,99423.63
2023-05-15T16:21:33.200Z,99428.00
2023-05-15T16:23:05.353Z,99432.34
2023-05-15T16:24:37.825Z,99432.25
2023-05-15T16:26:11.649Z,99423.72
2023-05-15T16:27:43.821Z,99427.19
2023-05-15T16:29:16.064Z,99426.44
2023-05-15T16:30:51.450Z,99427.19
2023-05-15T16:32:24.040Z,99419.59
2023-05-15T16:33:56.248Z,99421.59
2023-05-15T16:35:28.354Z,99418.13
2023-05-15T16:37:00.461Z,99415.72
2023-05-15T16:38:32.615Z,99412.34
2023-05-15T16:40:05.223Z,99416.88
2023-05-15T16:41:37.385Z,99415.38
2023-05-15T16:43:09.653Z,99420.75
2023-05-15T16:44:41.830Z,99423.47
2023-05-15T16:46:14.229Z,99429.69
2023-05-15T16:47:46.509Z,99426.41
2023-05-15T16:49:18.785Z,99436.94
2023-05-15T16:50:51.500Z,99424.09
2023-05-15T16:52:23.623Z,99431.25
2023-05-15T16:53:56.888Z,99432.31
2023-05-15T16:55:29.896Z,99430.19
2023-05-15T16:57:02.016Z,99433.31
2023-05-15T16:58:34.208Z,99432.78
2023-05-15T17:00:08.790Z,99424.25
2023-05-15T17:01:40.981Z,99423.72
2023-05-15T17:03:13.435Z,99416.34
2023-05-15T17:04:45.630Z,99425.56
2023-05-15T17:06:17.789Z,99417.09
2023-05-15T17:07:49.873Z,99424.47
2023-05-15T17:09:22.132Z,99430.00
2023-05-15T17:10:54.306Z,99430.84
2023-05-15T17:12:26.558Z,99431.03
2023-05-15T17:13:58.619Z,99431.13
2023-05-15T17:15:31.101Z,99424.28
2023-05-15T17:17:03.287Z,99436.59
2023-05-15T17:18:35.759Z,99428.06
2023-05-15T17:20:08.534Z,99419.63
2023-05-15T17:21:40.773Z,99420.03
2023-05-15T17:23:13.134Z,99417.88
2023-05-15T17:24:51.243Z,99426.06
2023-05-15T17:26:24.135Z,99437.78
2023-05-15T17:27:56.304Z,99442.38
2023-05-15T17:29:28.404Z,99445.19
2023-05-15T17:31:00.630Z,99435.81
2023-05-15T17:32:32.795Z,99425.63
2023-05-15T17:34:05.296Z,99413.69
2023-05-15T17:35:37.470Z,99430.66
2023-05-15T17:37:09.820Z,99430.03
2023-05-15T17:38:41.923Z,99428.50
2023-05-15T17:40:14.356Z,99427.94
2023-05-15T17:41:47.332Z,99432.44
2023-05-15T17:43:19.651Z,99435.34
2023-05-15T17:44:51.864Z,99433.16
2023-05-15T17:46:24.101Z,99433.38
2023-05-15T17:48:02.893Z,99431.03
2023-05-15T17:49:35.246Z,99430.44
2023-05-15T17:51:07.365Z,99438.69
2023-05-15T17:52:39.555Z,99427.72
2023-05-15T17:54:11.737Z,99425.38
2023-05-15T17:55:44.192Z,99436.22
2023-05-15T17:57:16.422Z,99429.63
2023-05-15T17:58:48.591Z,99428.97
2023-05-15T18:00:20.989Z,99435.22
2023-05-15T18:01:53.612Z,99432.03
2023-05-15T18:03:25.958Z,99442.81
2023-05-15T18:04:58.110Z,99443.06
2023-05-15T18:06:32.044Z,99450.28
2023-05-15T18:08:04.474Z,99450.63
2023-05-15T18:09:39.468Z,99446.59
2023-05-15T18:11:21.429Z,99451.19
2023-05-15T18:12:54.274Z,99459.22
2023-05-15T18:14:26.579Z,99463.81
2023-05-15T18:15:58.813Z,99468.53
2023-05-15T18:17:31.094Z,99463.47
2023-05-15T18:19:03.218Z,99467.94
2023-05-15T18:20:35.447Z,99472.34
2023-05-15T18:22:07.686Z,99471.66
2023-05-15T18:23:39.793Z,99465.75
2023-05-15T18:25:11.903Z,99464.16
2023-05-15T18:26:44.100Z,99468.63
2023-05-15T18:28:16.206Z,99468.78
2023-05-15T18:29:48.380Z,99468.13
2023-05-15T18:31:20.847Z,99473.38
2023-05-15T18:32:53.089Z,99460.53
2023-05-15T18:34:25.251Z,99477.16
2023-05-15T18:35:57.371Z,99476.38
2023-05-15T18:37:29.560Z,99477.34
2023-05-15T18:39:02.886Z,99484.50
2023-05-15T18:40:34.933Z,99486.72
2023-05-15T18:42:07.525Z,99492.38
2023-05-15T18:43:39.658Z,99495.13
2023-05-15T18:45:13.550Z,99496.06
2023-05-15T18:46:46.007Z,99487.72
2023-05-15T18:48:18.200Z,99479.22
2023-05-15T18:49:50.279Z,99477.72
2023-05-15T18:51:28.184Z,99475.09
2023-05-15T18:53:00.324Z,99477.19
2023-05-15T18:54:32.458Z,99478.22
2023-05-15T18:56:04.978Z,99482.59
2023-05-15T18:57:37.036Z,99481.91
2023-05-15T18:59:09.216Z,99490.69
2023-05-15T19:00:41.275Z,99485.53
2023-05-15T19:02:13.739Z,99489.16
2023-05-15T19:03:46.056Z,99480.53
2023-05-15T19:05:18.353Z,99480.63
2023-05-15T19:06:50.836Z,99492.91
2023-05-15T19:08:23.043Z,99498.16
2023-05-15T19:09:55.370Z,99506.00
2023-05-15T19:11:27.771Z,99504.22
2023-05-15T19:12:59.909Z,99500.78
2023-05-15T19:14:33.040Z,99505.09
2023-05-15T19:16:06.552Z,99505.31
2023-05-15T19:17:39.266Z,99500.97
2023-05-15T19:19:11.626Z,99490.69
2023-05-15T19:20:43.824Z,99490.09
2023-05-15T19:22:17.701Z,99478.94
2023-05-15T19:23:51.177Z,99466.88
2023-05-15T19:25:23.402Z,99459.16
2023-05-15T19:26:55.695Z,99439.16
2023-05-15T19:28:28.373Z,99428.78
2023-05-15T19:30:00.621Z,99429.53
2023-05-15T19:31:33.312Z,99442.63
2023-05-15T19:33:05.501Z,99452.91
2023-05-15T19:34:37.650Z,99453.84
2023-05-15T19:36:09.960Z,99446.00
2023-05-15T19:37:42.867Z,99448.38
2023-05-15T19:39:15.038Z,99445.81
2023-05-15T19:40:47.234Z,99429.28
2023-05-15T19:42:19.398Z,99433.63
2023-05-15T19:43:51.769Z,99435.34
2023-05-15T19:45:23.985Z,99446.69
2023-05-15T19:46:56.113Z,99463.22
2023-05-15T19:48:28.496Z,99479.84
2023-05-15T19:50:00.805Z,99499.09
2023-05-15T19:51:34.552Z,99518.25
2023-05-15T19:53:06.739Z,99511.25
2023-05-15T19:54:39.945Z,99499.78
2023-05-15T19:56:14.167Z,99491.00
2023-05-15T19:57:48.510Z,99485.69
2023-05-15T19:59:20.689Z,99473.69
2023-05-15T20:00:53.177Z,99472.00
2023-05-15T20:02:25.385Z,99460.75